sensor_id;sensor_type;location;lat;lon;timestamp;temperature;humidity
39919;DHT22;25589;51.552;13.424;2023-04-03T00:01:34;4.10;99.90
39919;DHT22;25589;51.552;13.424;2023-04-03T00:04:00;4.40;99.90
39919;DHT22;25589;51.552;13.424;2023-04-03T00:06:26;4.50;99.90
39919;DHT22;25589;51.552;13.424;2023-04-03T00:08:52;4.30;99.90
39919;DHT22;25589;51.552;13.424;2023-04-03T00:11:18;4.90;99.90
39919;DHT22;25589;51.552;13.424;2023-04-03T00:13:45;4.20;99.90
39919;DHT22;25589;51.552;13.424;2023-04-03T00:16:11;4.40;99.90
39919;DHT22;25589;51.552;13.424;2023-04-03T00:18:38;4.10;99.90
39919;DHT22;25589;51.552;13.424;2023-04-03T00:21:04;4.40;99.90
39919;DHT22;25589;51.552;13.424;2023-04-03T00:23:30;3.90;99.90
39919;DHT22;25589;51.552;13.424;2023-04-03T00:25:55;4.40;99.90
39919;DHT22;25589;51.552;13.424;2023-04-03T00:28:21;3.50;99.90
39919;DHT22;25589;51.552;13.424;2023-04-03T00:33:17;3.80;99.90
39919;DHT22;25589;51.552;13.424;2023-04-03T00:35:43;3.80;99.90
39919;DHT22;25589;51.552;13.424;2023-04-03T00:38:09;4.30;99.90
39919;DHT22;25589;51.552;13.424;2023-04-03T00:40:42;3.70;99.90
39919;DHT22;25589;51.552;13.424;2023-04-03T00:43:15;4.20;99.90
39919;DHT22;25589;51.552;13.424;2023-04-03T00:45:43;4.00;99.90
39919;DHT22;25589;51.552;13.424;2023-04-03T00:48:26;3.40;99.90
39919;DHT22;25589;51.552;13.424;2023-04-03T00:50:53;3.20;99.90
39919;DHT22;25589;51.552;13.424;2023-04-03T00:53:24;2.60;99.90
39919;DHT22;25589;51.552;13.424;2023-04-03T00:55:52;3.50;99.90
39919;DHT22;25589;51.552;13.424;2023-04-03T00:58:20;3.40;99.90
39919;DHT22;25589;51.552;13.424;2023-04-03T01:00:52;3.40;99.90
39919;DHT22;25589;51.552;13.424;2023-04-03T01:03:21;4.50;99.90
39919;DHT22;25589;51.552;13.424;2023-04-03T01:05:47;4.70;99.90
39919;DHT22;25589;51.552;13.424;2023-04-03T01:08:12;3.60;99.90
39919;DHT22;25589;51.552;13.424;2023-04-03T01:10:38;2.60;99.90
39919;DHT22;25589;51.552;13.424;2023-04-03T01:13:27;4.00;99.90
39919;DHT22;25589;51.552;13.424;2023-04-03T01:15:54;4.60;99.90
39919;DHT22;25589;51.552;13.424;2023-04-03T01:18:21;3.10;99.90
39919;DHT22;25589;51.552;13.424;2023-04-03T01:26:16;3.20;99.90
39919;DHT22;25589;51.552;13.424;2023-04-03T01:28:41;3.20;99.90
39919;DHT22;25589;51.552;13.424;2023-04-03T01:31:28;2.20;99.90
39919;DHT22;25589;51.552;13.424;2023-04-03T01:33:56;3.00;99.90
39919;DHT22;25589;51.552;13.424;2023-04-03T01:36:28;2.00;99.90
39919;DHT22;25589;51.552;13.424;2023-04-03T01:38:54;4.00;99.90
39919;DHT22;25589;51.552;13.424;2023-04-03T01:41:21;3.10;99.90
39919;DHT22;25589;51.552;13.424;2023-04-03T01:43:48;3.00;99.90
39919;DHT22;25589;51.552;13.424;2023-04-03T01:46:15;3.70;99.90
39919;DHT22;25589;51.552;13.424;2023-04-03T01:48:41;2.80;99.90
39919;DHT22;25589;51.552;13.424;2023-04-03T01:51:07;3.00;99.90
39919;DHT22;25589;51.552;13.424;2023-04-03T01:53:32;3.50;99.90
39919;DHT22;25589;51.552;13.424;2023-04-03T01:55:58;3.10;99.90
39919;DHT22;25589;51.552;13.424;2023-04-03T01:58:24;3.60;99.90
39919;DHT22;25589;51.552;13.424;2023-04-03T02:00:51;2.80;99.90
39919;DHT22;25589;51.552;13.424;2023-04-03T02:05:44;2.90;99.90
39919;DHT22;25589;51.552;13.424;2023-04-03T02:08:09;2.80;99.90
39919;DHT22;25589;51.552;13.424;2023-04-03T02:10:35;2.70;99.90
39919;DHT22;25589;51.552;13.424;2023-04-03T02:13:01;2.30;99.90
39919;DHT22;25589;51.552;13.424;2023-04-03T02:15:27;2.90;99.90
39919;DHT22;25589;51.552;13.424;2023-04-03T02:17:52;2.40;99.90
39919;DHT22;25589;51.552;13.424;2023-04-03T02:20:18;2.60;99.90
39919;DHT22;25589;51.552;13.424;2023-04-03T02:22:44;3.40;99.90
39919;DHT22;25589;51.552;13.424;2023-04-03T02:25:10;2.70;99.90
39919;DHT22;25589;51.552;13.424;2023-04-03T02:27:36;2.40;99.90
39919;DHT22;25589;51.552;13.424;2023-04-03T02:30:02;1.90;99.90
39919;DHT22;25589;51.552;13.424;2023-04-03T02:32:29;2.60;99.90
39919;DHT22;25589;51.552;13.424;2023-04-03T02:34:55;2.70;99.90
39919;DHT22;25589;51.552;13.424;2023-04-03T02:37:21;2.70;99.90
39919;DHT22;25589;51.552;13.424;2023-04-03T02:39:47;2.40;99.90
39919;DHT22;25589;51.552;13.424;2023-04-03T02:42:13;2.60;99.90
39919;DHT22;25589;51.552;13.424;2023-04-03T02:44:39;3.80;99.90
39919;DHT22;25589;51.552;13.424;2023-04-03T02:47:04;2.30;99.90
39919;DHT22;25589;51.552;13.424;2023-04-03T02:49:30;2.30;99.90
39919;DHT22;25589;51.552;13.424;2023-04-03T02:51:56;3.60;99.90
39919;DHT22;25589;51.552;13.424;2023-04-03T02:54:21;2.40;99.90
39919;DHT22;25589;51.552;13.424;2023-04-03T02:56:51;2.40;99.90
39919;DHT22;25589;51.552;13.424;2023-04-03T02:59:17;2.50;99.90
39919;DHT22;25589;51.552;13.424;2023-04-03T03:01:43;3.00;99.90
39919;DHT22;25589;51.552;13.424;2023-04-03T03:04:08;2.10;99.90
39919;DHT22;25589;51.552;13.424;2023-04-03T03:06:34;2.70;99.90
39919;DHT22;25589;51.552;13.424;2023-04-03T03:08:59;1.90;99.90
39919;DHT22;25589;51.552;13.424;2023-04-03T03:11:25;2.20;99.90
39919;DHT22;25589;51.552;13.424;2023-04-03T03:13:52;1.50;99.90
39919;DHT22;25589;51.552;13.424;2023-04-03T03:16:17;3.40;99.90
39919;DHT22;25589;51.552;13.424;2023-04-03T03:18:43;3.10;99.90
39919;DHT22;25589;51.552;13.424;2023-04-03T03:21:09;2.90;99.90
39919;DHT22;25589;51.552;13.424;2023-04-03T03:23:36;2.50;99.90
39919;DHT22;25589;51.552;13.424;2023-04-03T03:26:05;2.60;99.90
39919;DHT22;25589;51.552;13.424;2023-04-03T03:28:33;3.10;99.90
39919;DHT22;25589;51.552;13.424;2023-04-03T03:30:59;2.30;99.90
39919;DHT22;25589;51.552;13.424;2023-04-03T03:33:26;1.70;99.90
39919;DHT22;25589;51.552;13.424;2023-04-03T03:35:53;1.90;99.90
39919;DHT22;25589;51.552;13.424;2023-04-03T03:38:19;2.30;99.90
39919;DHT22;25589;51.552;13.424;2023-04-03T03:40:44;2.30;99.90
39919;DHT22;25589;51.552;13.424;2023-04-03T03:43:10;2.10;99.90
39919;DHT22;25589;51.552;13.424;2023-04-03T03:45:36;2.10;99.90
39919;DHT22;25589;51.552;13.424;2023-04-03T03:48:02;1.20;99.90
39919;DHT22;25589;51.552;13.424;2023-04-03T03:50:27;1.80;99.90
39919;DHT22;25589;51.552;13.424;2023-04-03T03:52:53;1.60;99.90
39919;DHT22;25589;51.552;13.424;2023-04-03T03:55:19;2.10;99.90
39919;DHT22;25589;51.552;13.424;2023-04-03T03:57:49;1.90;99.90
39919;DHT22;25589;51.552;13.424;2023-04-03T04:00:15;2.90;99.90
39919;DHT22;25589;51.552;13.424;2023-04-03T04:02:41;2.50;99.90
39919;DHT22;25589;51.552;13.424;2023-04-03T04:05:11;2.00;99.90
39919;DHT22;25589;51.552;13.424;2023-04-03T04:07:37;2.20;99.90
39919;DHT22;25589;51.552;13.424;2023-04-03T04:10:03;2.80;99.90
39919;DHT22;25589;51.552;13.424;2023-04-03T04:12:30;2.00;99.90
39919;DHT22;25589;51.552;13.424;2023-04-03T04:14:56;2.00;99.90
39919;DHT22;25589;51.552;13.424;2023-04-03T04:17:23;2.10;99.90
39919;DHT22;25589;51.552;13.424;2023-04-03T04:19:49;1.90;99.90
39919;DHT22;25589;51.552;13.424;2023-04-03T04:22:15;1.80;99.90
39919;DHT22;25589;51.552;13.424;2023-04-03T04:24:42;1.90;99.90
39919;DHT22;25589;51.552;13.424;2023-04-03T04:27:08;1.90;99.90
39919;DHT22;25589;51.552;13.424;2023-04-03T04:29:34;2.70;99.90
39919;DHT22;25589;51.552;13.424;2023-04-03T04:32:03;1.80;99.90
39919;DHT22;25589;51.552;13.424;2023-04-03T04:34:29;1.80;99.90
39919;DHT22;25589;51.552;13.424;2023-04-03T04:36:56;1.70;99.90
39919;DHT22;25589;51.552;13.424;2023-04-03T04:41:48;1.70;99.90
39919;DHT22;25589;51.552;13.424;2023-04-03T04:44:13;2.60;99.90
39919;DHT22;25589;51.552;13.424;2023-04-03T04:49:07;1.40;99.90
39919;DHT22;25589;51.552;13.424;2023-04-03T04:51:33;1.80;99.90
39919;DHT22;25589;51.552;13.424;2023-04-03T04:53:59;1.70;99.90
39919;DHT22;25589;51.552;13.424;2023-04-03T04:56:25;2.20;99.90
39919;DHT22;25589;51.552;13.424;2023-04-03T04:58:52;1.90;99.90
39919;DHT22;25589;51.552;13.424;2023-04-03T05:01:20;2.40;99.90
39919;DHT22;25589;51.552;13.424;2023-04-03T05:03:53;2.50;99.90
39919;DHT22;25589;51.552;13.424;2023-04-03T05:06:20;0.30;99.90
39919;DHT22;25589;51.552;13.424;2023-04-03T05:08:46;2.20;99.90
39919;DHT22;25589;51.552;13.424;2023-04-03T05:11:11;1.80;99.90
39919;DHT22;25589;51.552;13.424;2023-04-03T05:13:38;1.00;99.90
39919;DHT22;25589;51.552;13.424;2023-04-03T05:16:04;1.80;99.90
39919;DHT22;25589;51.552;13.424;2023-04-03T05:18:31;3.10;99.90
39919;DHT22;25589;51.552;13.424;2023-04-03T05:21:00;1.50;99.90
39919;DHT22;25589;51.552;13.424;2023-04-03T05:23:26;2.40;99.90
39919;DHT22;25589;51.552;13.424;2023-04-03T05:25:53;2.20;99.90
39919;DHT22;25589;51.552;13.424;2023-04-03T05:28:21;0.50;99.90
39919;DHT22;25589;51.552;13.424;2023-04-03T05:30:56;2.70;99.90
39919;DHT22;25589;51.552;13.424;2023-04-03T05:33:23;2.50;99.90
39919;DHT22;25589;51.552;13.424;2023-04-03T05:35:53;2.00;99.90
39919;DHT22;25589;51.552;13.424;2023-04-03T05:38:23;2.00;99.90
39919;DHT22;25589;51.552;13.424;2023-04-03T05:40:49;2.00;99.90
39919;DHT22;25589;51.552;13.424;2023-04-03T05:43:15;2.90;99.90
39919;DHT22;25589;51.552;13.424;2023-04-03T05:45:43;2.30;99.90
39919;DHT22;25589;51.552;13.424;2023-04-03T05:48:08;1.00;99.90
39919;DHT22;25589;51.552;13.424;2023-04-03T05:50:34;2.70;99.90
39919;DHT22;25589;51.552;13.424;2023-04-03T05:53:02;2.40;99.90
39919;DHT22;25589;51.552;13.424;2023-04-03T05:55:30;2.30;99.90
39919;DHT22;25589;51.552;13.424;2023-04-03T05:57:56;2.00;99.90
39919;DHT22;25589;51.552;13.424;2023-04-03T06:00:22;3.30;99.90
39919;DHT22;25589;51.552;13.424;2023-04-03T06:05:24;3.20;99.90
39919;DHT22;25589;51.552;13.424;2023-04-03T06:07:49;3.40;99.90
39919;DHT22;25589;51.552;13.424;2023-04-03T06:10:15;2.00;99.90
39919;DHT22;25589;51.552;13.424;2023-04-03T06:12:41;2.50;99.90
39919;DHT22;25589;51.552;13.424;2023-04-03T06:15:07;3.20;99.90
39919;DHT22;25589;51.552;13.424;2023-04-03T06:17:35;3.40;99.90
39919;DHT22;25589;51.552;13.424;2023-04-03T06:20:01;2.40;99.90
39919;DHT22;25589;51.552;13.424;2023-04-03T06:22:29;2.50;99.90
39919;DHT22;25589;51.552;13.424;2023-04-03T06:24:56;3.20;99.90
39919;DHT22;25589;51.552;13.424;2023-04-03T06:27:22;2.60;99.90
39919;DHT22;25589;51.552;13.424;2023-04-03T06:29:48;2.70;99.90
39919;DHT22;25589;51.552;13.424;2023-04-03T06:32:14;2.80;99.90
39919;DHT22;25589;51.552;13.424;2023-04-03T06:34:40;2.70;99.90
39919;DHT22;25589;51.552;13.424;2023-04-03T06:37:10;2.90;99.90
39919;DHT22;25589;51.552;13.424;2023-04-03T06:39:36;2.90;99.90
39919;DHT22;25589;51.552;13.424;2023-04-03T06:44:35;3.40;99.90
39919;DHT22;25589;51.552;13.424;2023-04-03T06:47:01;3.70;99.90
39919;DHT22;25589;51.552;13.424;2023-04-03T06:49:27;3.00;99.90
39919;DHT22;25589;51.552;13.424;2023-04-03T06:51:53;3.20;99.90
39919;DHT22;25589;51.552;13.424;2023-04-03T06:54:18;2.50;99.90
39919;DHT22;25589;51.552;13.424;2023-04-03T06:56:44;3.00;99.90
39919;DHT22;25589;51.552;13.424;2023-04-03T06:59:11;3.30;99.90
39919;DHT22;25589;51.552;13.424;2023-04-03T07:01:38;4.30;99.90
39919;DHT22;25589;51.552;13.424;2023-04-03T07:04:04;4.10;99.90
39919;DHT22;25589;51.552;13.424;2023-04-03T07:06:30;3.20;99.90
39919;DHT22;25589;51.552;13.424;2023-04-03T07:08:57;3.30;99.90
39919;DHT22;25589;51.552;13.424;2023-04-03T07:11:23;4.50;99.90
39919;DHT22;25589;51.552;13.424;2023-04-03T07:13:49;4.60;99.90
39919;DHT22;25589;51.552;13.424;2023-04-03T07:16:15;4.10;99.90
39919;DHT22;25589;51.552;13.424;2023-04-03T07:18:41;3.20;99.90
39919;DHT22;25589;51.552;13.424;2023-04-03T07:21:07;2.90;99.90
39919;DHT22;25589;51.552;13.424;2023-04-03T07:23:32;3.60;99.90
39919;DHT22;25589;51.552;13.424;2023-04-03T07:25:58;3.50;99.90
39919;DHT22;25589;51.552;13.424;2023-04-03T07:28:24;3.70;99.90
39919;DHT22;25589;51.552;13.424;2023-04-03T07:30:53;3.80;99.90
39919;DHT22;25589;51.552;13.424;2023-04-03T07:33:21;3.90;99.90
39919;DHT22;25589;51.552;13.424;2023-04-03T07:35:47;3.90;99.90
39919;DHT22;25589;51.552;13.424;2023-04-03T07:38:13;3.90;99.90
39919;DHT22;25589;51.552;13.424;2023-04-03T07:40:39;3.40;99.90
39919;DHT22;25589;51.552;13.424;2023-04-03T07:43:05;5.30;99.90
39919;DHT22;25589;51.552;13.424;2023-04-03T07:45:34;3.80;99.90
39919;DHT22;25589;51.552;13.424;2023-04-03T07:48:00;5.10;99.90
39919;DHT22;25589;51.552;13.424;2023-04-03T07:50:26;4.30;99.90
39919;DHT22;25589;51.552;13.424;2023-04-03T07:52:52;4.30;99.90
39919;DHT22;25589;51.552;13.424;2023-04-03T07:55:19;5.30;99.90
39919;DHT22;25589;51.552;13.424;2023-04-03T07:57:45;4.50;99.90
39919;DHT22;25589;51.552;13.424;2023-04-03T08:00:11;4.70;99.90
39919;DHT22;25589;51.552;13.424;2023-04-03T08:02:40;5.70;99.90
39919;DHT22;25589;51.552;13.424;2023-04-03T08:05:06;5.00;99.90
39919;DHT22;25589;51.552;13.424;2023-04-03T08:07:31;5.60;99.90
39919;DHT22;25589;51.552;13.424;2023-04-03T08:09:57;5.40;99.90
39919;DHT22;25589;51.552;13.424;2023-04-03T08:12:22;4.80;99.90
39919;DHT22;25589;51.552;13.424;2023-04-03T08:14:48;4.90;99.90
39919;DHT22;25589;51.552;13.424;2023-04-03T08:17:14;5.50;99.90
39919;DHT22;25589;51.552;13.424;2023-04-03T08:19:39;4.90;99.90
39919;DHT22;25589;51.552;13.424;2023-04-03T08:22:05;6.20;99.90
39919;DHT22;25589;51.552;13.424;2023-04-03T08:24:35;5.60;99.90
39919;DHT22;25589;51.552;13.424;2023-04-03T08:27:00;5.30;99.90
39919;DHT22;25589;51.552;13.424;2023-04-03T08:29:26;6.40;99.90
39919;DHT22;25589;51.552;13.424;2023-04-03T08:31:52;5.40;99.90
39919;DHT22;25589;51.552;13.424;2023-04-03T08:34:18;6.20;99.90
39919;DHT22;25589;51.552;13.424;2023-04-03T08:36:44;4.40;99.90
39919;DHT22;25589;51.552;13.424;2023-04-03T08:39:10;4.70;99.90
39919;DHT22;25589;51.552;13.424;2023-04-03T08:41:38;5.40;99.90
39919;DHT22;25589;51.552;13.424;2023-04-03T08:44:24;5.30;99.90
39919;DHT22;25589;51.552;13.424;2023-04-03T08:49:49;6.60;99.90
39919;DHT22;25589;51.552;13.424;2023-04-03T08:55:07;5.50;99.90
39919;DHT22;25589;51.552;13.424;2023-04-03T08:57:40;5.80;99.90
39919;DHT22;25589;51.552;13.424;2023-04-03T09:00:18;5.70;99.90
39919;DHT22;25589;51.552;13.424;2023-04-03T09:02:47;5.70;99.90
39919;DHT22;25589;51.552;13.424;2023-04-03T09:05:16;6.60;99.90
39919;DHT22;25589;51.552;13.424;2023-04-03T09:10:13;6.40;99.90
39919;DHT22;25589;51.552;13.424;2023-04-03T09:12:42;6.70;99.90
39919;DHT22;25589;51.552;13.424;2023-04-03T09:15:25;6.30;99.70
39919;DHT22;25589;51.552;13.424;2023-04-03T09:18:21;6.70;99.40
39919;DHT22;25589;51.552;13.424;2023-04-03T09:21:26;7.30;99.50
39919;DHT22;25589;51.552;13.424;2023-04-03T09:23:56;7.80;99.60
39919;DHT22;25589;51.552;13.424;2023-04-03T09:26:24;7.50;97.70
39919;DHT22;25589;51.552;13.424;2023-04-03T09:28:53;6.60;97.00
39919;DHT22;25589;51.552;13.424;2023-04-03T09:31:23;6.40;95.50
39919;DHT22;25589;51.552;13.424;2023-04-03T09:33:53;8.40;95.70
39919;DHT22;25589;51.552;13.424;2023-04-03T09:36:46;7.60;94.50
39919;DHT22;25589;51.552;13.424;2023-04-03T09:39:19;7.20;93.00
39919;DHT22;25589;51.552;13.424;2023-04-03T09:42:11;7.40;92.60
39919;DHT22;25589;51.552;13.424;2023-04-03T09:44:38;7.40;92.10
39919;DHT22;25589;51.552;13.424;2023-04-03T09:47:28;7.70;91.30
39919;DHT22;25589;51.552;13.424;2023-04-03T09:52:46;9.30;88.80
39919;DHT22;25589;51.552;13.424;2023-04-03T09:55:17;8.40;89.30
39919;DHT22;25589;51.552;13.424;2023-04-03T09:57:44;7.30;91.50
39919;DHT22;25589;51.552;13.424;2023-04-03T10:00:30;8.40;92.50
39919;DHT22;25589;51.552;13.424;2023-04-03T10:02:57;7.70;92.90
39919;DHT22;25589;51.552;13.424;2023-04-03T10:05:38;8.00;93.40
39919;DHT22;25589;51.552;13.424;2023-04-03T10:10:44;7.10;91.30
39919;DHT22;25589;51.552;13.424;2023-04-03T10:13:19;7.70;91.30
39919;DHT22;25589;51.552;13.424;2023-04-03T10:15:51;7.50;91.30
39919;DHT22;25589;51.552;13.424;2023-04-03T10:18:25;7.30;90.90
39919;DHT22;25589;51.552;13.424;2023-04-03T10:20:53;7.50;92.00
39919;DHT22;25589;51.552;13.424;2023-04-03T10:23:27;7.90;91.90
39919;DHT22;25589;51.552;13.424;2023-04-03T10:29:16;8.00;87.60
39919;DHT22;25589;51.552;13.424;2023-04-03T10:31:58;7.90;88.40
39919;DHT22;25589;51.552;13.424;2023-04-03T10:34:39;8.10;87.60
39919;DHT22;25589;51.552;13.424;2023-04-03T10:37:18;8.50;88.20
39919;DHT22;25589;51.552;13.424;2023-04-03T10:40:01;9.20;87.30
39919;DHT22;25589;51.552;13.424;2023-04-03T10:45:28;8.20;86.50
39919;DHT22;25589;51.552;13.424;2023-04-03T10:48:47;8.70;85.30
39919;DHT22;25589;51.552;13.424;2023-04-03T10:51:28;9.00;83.00
39919;DHT22;25589;51.552;13.424;2023-04-03T10:54:05;9.30;81.60
39919;DHT22;25589;51.552;13.424;2023-04-03T10:56:39;9.10;81.60
39919;DHT22;25589;51.552;13.424;2023-04-03T11:02:30;8.50;83.10
39919;DHT22;25589;51.552;13.424;2023-04-03T11:11:09;7.70;82.80
39919;DHT22;25589;51.552;13.424;2023-04-03T11:13:43;8.60;81.20
39919;DHT22;25589;51.552;13.424;2023-04-03T11:16:18;8.80;80.90
39919;DHT22;25589;51.552;13.424;2023-04-03T11:19:05;8.60;80.70
39919;DHT22;25589;51.552;13.424;2023-04-03T11:21:46;7.40;82.00
39919;DHT22;25589;51.552;13.424;2023-04-03T11:24:23;8.70;82.90
39919;DHT22;25589;51.552;13.424;2023-04-03T11:26:50;9.40;84.30
39919;DHT22;25589;51.552;13.424;2023-04-03T11:29:22;8.40;81.00
39919;DHT22;25589;51.552;13.424;2023-04-03T11:34:33;9.90;79.40
39919;DHT22;25589;51.552;13.424;2023-04-03T11:40:03;8.80;76.70
39919;DHT22;25589;51.552;13.424;2023-04-03T11:42:40;8.80;77.20
39919;DHT22;25589;51.552;13.424;2023-04-03T11:47:50;9.40;74.20
39919;DHT22;25589;51.552;13.424;2023-04-03T11:50:51;8.80;71.90
39919;DHT22;25589;51.552;13.424;2023-04-03T11:58:17;8.90;71.30
39919;DHT22;25589;51.552;13.424;2023-04-03T12:16:21;9.50;71.60
39919;DHT22;25589;51.552;13.424;2023-04-03T12:32:15;8.40;77.70
39919;DHT22;25589;51.552;13.424;2023-04-03T12:43:18;9.50;77.10
39919;DHT22;25589;51.552;13.424;2023-04-03T12:45:56;8.60;75.90
39919;DHT22;25589;51.552;13.424;2023-04-03T12:50:56;9.10;75.50
39919;DHT22;25589;51.552;13.424;2023-04-03T12:53:25;8.70;74.70
39919;DHT22;25589;51.552;13.424;2023-04-03T12:56:18;8.70;74.30
39919;DHT22;25589;51.552;13.424;2023-04-03T12:58:44;8.80;74.40
39919;DHT22;25589;51.552;13.424;2023-04-03T13:01:12;8.60;74.50
39919;DHT22;25589;51.552;13.424;2023-04-03T13:03:41;8.60;73.80
39919;DHT22;25589;51.552;13.424;2023-04-03T13:06:17;9.00;73.30
39919;DHT22;25589;51.552;13.424;2023-04-03T13:11:20;8.00;71.60
39919;DHT22;25589;51.552;13.424;2023-04-03T13:14:00;9.30;73.10
39919;DHT22;25589;51.552;13.424;2023-04-03T13:16:27;8.90;73.60
39919;DHT22;25589;51.552;13.424;2023-04-03T13:18:54;8.20;72.80
39919;DHT22;25589;51.552;13.424;2023-04-03T13:21:26;8.30;73.80
39919;DHT22;25589;51.552;13.424;2023-04-03T13:23:54;8.40;72.20
39919;DHT22;25589;51.552;13.424;2023-04-03T13:26:22;8.80;71.70
39919;DHT22;25589;51.552;13.424;2023-04-03T13:28:49;8.70;71.60
39919;DHT22;25589;51.552;13.424;2023-04-03T13:31:23;9.40;72.10
39919;DHT22;25589;51.552;13.424;2023-04-03T13:37:14;8.70;71.10
39919;DHT22;25589;51.552;13.424;2023-04-03T13:41:51;9.30;71.90
39919;DHT22;25589;51.552;13.424;2023-04-03T13:44:27;8.90;72.00
39919;DHT22;25589;51.552;13.424;2023-04-03T13:46:56;8.80;72.50
39919;DHT22;25589;51.552;13.424;2023-04-03T13:49:33;9.00;72.30
39919;DHT22;25589;51.552;13.424;2023-04-03T13:52:00;8.90;72.80
39919;DHT22;25589;51.552;13.424;2023-04-03T13:54:35;8.80;73.30
39919;DHT22;25589;51.552;13.424;2023-04-03T13:57:02;8.40;72.80
39919;DHT22;25589;51.552;13.424;2023-04-03T13:59:31;8.30;72.10
39919;DHT22;25589;51.552;13.424;2023-04-03T14:04:53;8.30;71.50
39919;DHT22;25589;51.552;13.424;2023-04-03T14:07:23;8.20;72.20
39919;DHT22;25589;51.552;13.424;2023-04-03T14:09:49;8.70;73.10
39919;DHT22;25589;51.552;13.424;2023-04-03T14:12:25;8.50;72.70
39919;DHT22;25589;51.552;13.424;2023-04-03T14:14:53;8.10;72.90
39919;DHT22;25589;51.552;13.424;2023-04-03T14:17:21;8.60;73.60
39919;DHT22;25589;51.552;13.424;2023-04-03T14:19:48;8.50;72.50
39919;DHT22;25589;51.552;13.424;2023-04-03T14:22:23;9.30;73.00
39919;DHT22;25589;51.552;13.424;2023-04-03T14:24:50;8.40;72.80
39919;DHT22;25589;51.552;13.424;2023-04-03T14:27:18;8.60;73.70
39919;DHT22;25589;51.552;13.424;2023-04-03T14:29:45;7.80;72.90
39919;DHT22;25589;51.552;13.424;2023-04-03T14:32:13;9.20;73.60
39919;DHT22;25589;51.552;13.424;2023-04-03T14:34:39;8.20;73.60
39919;DHT22;25589;51.552;13.424;2023-04-03T14:37:08;8.30;73.40
39919;DHT22;25589;51.552;13.424;2023-04-03T14:39:34;7.90;73.30
39919;DHT22;25589;51.552;13.424;2023-04-03T14:41:59;7.60;75.40
39919;DHT22;25589;51.552;13.424;2023-04-03T14:46:51;7.90;76.30
39919;DHT22;25589;51.552;13.424;2023-04-03T14:49:24;7.90;76.90
39919;DHT22;25589;51.552;13.424;2023-04-03T14:51:50;7.20;76.20
39919;DHT22;25589;51.552;13.424;2023-04-03T14:54:21;8.00;76.30
39919;DHT22;25589;51.552;13.424;2023-04-03T14:56:51;8.10;75.90
39919;DHT22;25589;51.552;13.424;2023-04-03T14:59:17;8.10;76.00
39919;DHT22;25589;51.552;13.424;2023-04-03T15:01:45;8.90;76.70
39919;DHT22;25589;51.552;13.424;2023-04-03T15:04:15;7.70;76.50
39919;DHT22;25589;51.552;13.424;2023-04-03T15:06:42;8.80;77.00
39919;DHT22;25589;51.552;13.424;2023-04-03T15:11:45;7.70;76.50
39919;DHT22;25589;51.552;13.424;2023-04-03T15:14:10;7.40;77.40
39919;DHT22;25589;51.552;13.424;2023-04-03T15:16:36;7.90;78.20
39919;DHT22;25589;51.552;13.424;2023-04-03T15:19:01;7.70;78.40
39919;DHT22;25589;51.552;13.424;2023-04-03T15:21:27;8.10;79.30
39919;DHT22;25589;51.552;13.424;2023-04-03T15:23:53;7.80;79.30
39919;DHT22;25589;51.552;13.424;2023-04-03T15:26:18;7.90;78.90
39919;DHT22;25589;51.552;13.424;2023-04-03T15:28:44;7.60;79.40
39919;DHT22;25589;51.552;13.424;2023-04-03T15:31:10;7.00;79.30
39919;DHT22;25589;51.552;13.424;2023-04-03T15:33:36;7.10;80.00
39919;DHT22;25589;51.552;13.424;2023-04-03T15:36:03;7.80;81.90
39919;DHT22;25589;51.552;13.424;2023-04-03T15:38:28;7.90;82.20
39919;DHT22;25589;51.552;13.424;2023-04-03T15:40:55;7.70;82.00
39919;DHT22;25589;51.552;13.424;2023-04-03T15:43:21;7.70;81.90
39919;DHT22;25589;51.552;13.424;2023-04-03T15:45:47;7.80;81.50
39919;DHT22;25589;51.552;13.424;2023-04-03T15:48:13;7.80;81.80
39919;DHT22;25589;51.552;13.424;2023-04-03T15:50:39;7.70;81.60
39919;DHT22;25589;51.552;13.424;2023-04-03T15:53:05;8.10;81.20
39919;DHT22;25589;51.552;13.424;2023-04-03T15:55:33;7.70;81.00
39919;DHT22;25589;51.552;13.424;2023-04-03T15:57:59;7.80;81.40
39919;DHT22;25589;51.552;13.424;2023-04-03T16:00:26;7.90;81.40
39919;DHT22;25589;51.552;13.424;2023-04-03T16:03:00;8.10;80.70
39919;DHT22;25589;51.552;13.424;2023-04-03T16:05:27;8.50;80.90
39919;DHT22;25589;51.552;13.424;2023-04-03T16:07:53;6.90;80.80
39919;DHT22;25589;51.552;13.424;2023-04-03T16:10:20;8.30;81.70
39919;DHT22;25589;51.552;13.424;2023-04-03T16:12:46;8.90;81.90
39919;DHT22;25589;51.552;13.424;2023-04-03T16:15:12;8.00;81.50
39919;DHT22;25589;51.552;13.424;2023-04-03T16:17:38;8.50;81.90
39919;DHT22;25589;51.552;13.424;2023-04-03T16:20:07;7.30;81.30
39919;DHT22;25589;51.552;13.424;2023-04-03T16:22:33;7.80;81.70
39919;DHT22;25589;51.552;13.424;2023-04-03T16:24:58;9.00;82.60
39919;DHT22;25589;51.552;13.424;2023-04-03T16:27:24;7.30;82.00
39919;DHT22;25589;51.552;13.424;2023-04-03T16:29:54;8.40;82.70
39919;DHT22;25589;51.552;13.424;2023-04-03T16:32:20;8.60;83.40
39919;DHT22;25589;51.552;13.424;2023-04-03T16:34:46;7.10;82.80
39919;DHT22;25589;51.552;13.424;2023-04-03T16:37:11;8.20;83.60
39919;DHT22;25589;51.552;13.424;2023-04-03T16:39:37;7.30;83.20
39919;DHT22;25589;51.552;13.424;2023-04-03T16:42:02;7.80;83.80
39919;DHT22;25589;51.552;13.424;2023-04-03T16:44:28;7.60;83.60
39919;DHT22;25589;51.552;13.424;2023-04-03T16:46:54;8.00;83.70
39919;DHT22;25589;51.552;13.424;2023-04-03T16:49:19;8.10;84.30
39919;DHT22;25589;51.552;13.424;2023-04-03T16:51:45;7.90;84.50
39919;DHT22;25589;51.552;13.424;2023-04-03T16:54:11;7.90;85.20
39919;DHT22;25589;51.552;13.424;2023-04-03T16:56:38;7.90;85.60
39919;DHT22;25589;51.552;13.424;2023-04-03T16:59:04;8.00;86.10
39919;DHT22;25589;51.552;13.424;2023-04-03T17:01:30;7.10;85.40
39919;DHT22;25589;51.552;13.424;2023-04-03T17:03:55;8.50;86.30
39919;DHT22;25589;51.552;13.424;2023-04-03T17:06:21;8.40;86.00
39919;DHT22;25589;51.552;13.424;2023-04-03T17:08:49;9.00;84.40
39919;DHT22;25589;51.552;13.424;2023-04-03T17:11:28;9.70;83.30
39919;DHT22;25589;51.552;13.424;2023-04-03T17:13:54;10.10;81.80
39919;DHT22;25589;51.552;13.424;2023-04-03T17:16:20;10.80;82.10
39919;DHT22;25589;51.552;13.424;2023-04-03T17:18:45;9.80;81.60
39919;DHT22;25589;51.552;13.424;2023-04-03T17:21:12;9.30;82.30
39919;DHT22;25589;51.552;13.424;2023-04-03T17:23:39;8.80;83.60
39919;DHT22;25589;51.552;13.424;2023-04-03T17:26:06;8.00;84.90
39919;DHT22;25589;51.552;13.424;2023-04-03T17:28:31;7.70;86.10
39919;DHT22;25589;51.552;13.424;2023-04-03T17:30:59;7.90;87.00
39919;DHT22;25589;51.552;13.424;2023-04-03T17:33:25;7.50;87.00
39919;DHT22;25589;51.552;13.424;2023-04-03T17:35:59;7.60;88.40
39919;DHT22;25589;51.552;13.424;2023-04-03T17:38:26;7.50;88.70